Select Airport:
Chesapeake Regional Airport
Last updated: 3 minutes ago
Flight conditions: LIFR
Visibility: 0.25 statute miles
Sky Conditions:
   Overcast at 200 feet
Weather conditions: fog
Wind From:
Wind speed: 0 knots (0 mph)
Temperature: 2.1°C (35.78°F)
Dew Point: 1.5°C (34.7°F)
Altimiter setting: 30.40 in-hg
WX phone: 1-757-204-4290
WX freq: 123.675 MHz
No wind, all runways available.
If at an uncontrolled airport, be sure to listen carefully to the CTAF for the runway(s) in use.
KCPK 190835Z AUTO 00000KT 1/4SM FG OVC002 02/02 A3040 RMK AO2 T00210015
FOR REFERENCE USE ONLY, DATA MAY NOT BE CURRENT.
ALWAYS CHECK FOR UP TO DATE INFORMATION.